createdAt,value
2023-02-11T00:00:11.887Z,42.05
2023-02-11T00:00:44.575Z,41.45
2023-02-11T00:01:30.835Z,41.60
2023-02-11T00:02:05.099Z,41.38
2023-02-11T00:02:37.543Z,39.47
2023-02-11T00:03:09.995Z,41.42
2023-02-11T00:03:42.362Z,40.03
2023-02-11T00:04:14.773Z,39.80
2023-02-11T00:04:47.605Z,38.53
2023-02-11T00:05:19.966Z,38.47
2023-02-11T00:06:02.283Z,38.30
2023-02-11T00:06:35.252Z,35.45
2023-02-11T00:07:07.540Z,36.97
2023-02-11T00:07:40.294Z,35.22
2023-02-11T00:08:17.212Z,35.97
2023-02-11T00:08:49.961Z,34.95
2023-02-11T00:09:22.407Z,33.58
2023-02-11T00:09:54.853Z,35.33
2023-02-11T00:10:27.604Z,35.15
2023-02-11T00:10:59.964Z,34.08
2023-02-11T00:11:32.677Z,35.10
2023-02-11T00:12:05.301Z,33.50
2023-02-11T00:12:38.487Z,35.45
2023-02-11T00:13:10.885Z,35.28
2023-02-11T00:13:44.190Z,35.30
2023-02-11T00:14:16.501Z,35.58
2023-02-11T00:14:48.919Z,35.67
2023-02-11T00:15:21.635Z,34.67
2023-02-11T00:15:54.604Z,36.30
2023-02-11T00:16:27.267Z,36.25
2023-02-11T00:16:59.870Z,35.00
2023-02-11T00:17:32.933Z,35.15
2023-02-11T00:18:05.247Z,35.47
2023-02-11T00:18:37.781Z,35.42
2023-02-11T00:19:10.058Z,34.78
2023-02-11T00:19:42.526Z,35.40
2023-02-11T00:20:15.128Z,36.78
2023-02-11T00:20:47.562Z,35.72
2023-02-11T00:21:21.531Z,34.90
2023-02-11T00:21:53.817Z,35.47
2023-02-11T00:22:26.218Z,34.20
2023-02-11T00:22:58.583Z,36.95
2023-02-11T00:23:31.358Z,35.35
2023-02-11T00:24:04.211Z,32.83
2023-02-11T00:24:36.798Z,34.70
2023-02-11T00:25:09.266Z,35.08
2023-02-11T00:25:42.186Z,34.03
2023-02-11T00:26:22.252Z,33.92
2023-02-11T00:26:54.603Z,34.22
2023-02-11T00:27:27.015Z,33.17
2023-02-11T00:27:59.527Z,33.95
2023-02-11T00:28:32.064Z,31.92
2023-02-11T00:29:04.705Z,31.90
2023-02-11T00:29:37.783Z,34.13
2023-02-11T00:30:11.061Z,33.85
2023-02-11T00:30:44.074Z,32.95
2023-02-11T00:31:17.228Z,34.17
2023-02-11T00:31:49.775Z,33.88
2023-02-11T00:32:22.135Z,34.22
2023-02-11T00:32:55.971Z,32.88
2023-02-11T00:33:28.351Z,33.67
2023-02-11T00:34:00.762Z,33.38
2023-02-11T00:34:33.736Z,31.45
2023-02-11T00:35:07.952Z,33.58
2023-02-11T00:35:40.285Z,32.40
2023-02-11T00:36:17.273Z,34.13
2023-02-11T00:36:52.325Z,31.38
2023-02-11T00:37:24.782Z,32.78
2023-02-11T00:37:57.353Z,31.33
2023-02-11T00:38:29.670Z,33.78
2023-02-11T00:39:02.587Z,33.45
2023-02-11T00:39:34.877Z,33.47
2023-02-11T00:40:09.095Z,32.58
2023-02-11T00:40:41.447Z,33.65
2023-02-11T00:41:14.840Z,33.88
2023-02-11T00:41:47.143Z,31.73
2023-02-11T00:42:19.550Z,33.92
2023-02-11T00:42:52.208Z,33.22
2023-02-11T00:43:24.718Z,32.83
2023-02-11T00:43:57.566Z,33.22
2023-02-11T00:44:29.871Z,32.58
2023-02-11T00:45:02.363Z,32.35
2023-02-11T00:45:34.997Z,32.90
2023-02-11T00:46:07.790Z,33.45
2023-02-11T00:46:40.191Z,33.63
2023-02-11T00:47:15.792Z,32.08
2023-02-11T00:47:49.496Z,31.92
2023-02-11T00:48:21.850Z,33.20
2023-02-11T00:48:57.978Z,32.72
2023-02-11T00:49:30.794Z,32.05
2023-02-11T00:50:05.428Z,31.95
2023-02-11T00:50:37.777Z,32.03
2023-02-11T00:51:10.850Z,32.88
2023-02-11T00:51:43.123Z,32.47
2023-02-11T00:52:15.715Z,33.28
2023-02-11T00:52:48.160Z,33.83
2023-02-11T00:53:20.466Z,33.60
2023-02-11T00:53:53.008Z,35.47
2023-02-11T00:54:25.281Z,35.22
2023-02-11T00:54:57.649Z,35.97
2023-02-11T00:55:29.900Z,35.72
2023-02-11T00:56:02.332Z,38.17
2023-02-11T00:56:34.777Z,37.15
2023-02-11T00:57:07.089Z,38.50
2023-02-11T00:57:39.535Z,38.28
2023-02-11T00:58:11.846Z,39.75
2023-02-11T00:58:44.172Z,39.58
2023-02-11T00:59:16.633Z,41.05
2023-02-11T00:59:50.795Z,38.78
2023-02-11T01:00:24.471Z,40.92
2023-02-11T01:00:57.530Z,39.90
2023-02-11T01:01:30.774Z,40.88
2023-02-11T01:02:03.122Z,38.15
2023-02-11T01:02:35.466Z,39.38
2023-02-11T01:03:08.939Z,35.75
2023-02-11T01:03:41.441Z,38.65
2023-02-11T01:04:13.923Z,37.95
2023-02-11T01:04:46.669Z,38.10
2023-02-11T01:05:19.843Z,37.75
2023-02-11T01:05:53.988Z,38.72
2023-02-11T01:06:26.255Z,37.65
2023-02-11T01:06:58.622Z,37.70
2023-02-11T01:07:31.560Z,38.58
2023-02-11T01:08:04.014Z,36.92
2023-02-11T01:08:37.048Z,38.33
2023-02-11T01:09:09.387Z,37.13
2023-02-11T01:09:41.671Z,38.22
2023-02-11T01:10:14.054Z,37.38
2023-02-11T01:10:53.873Z,37.50
2023-02-11T01:11:26.456Z,37.75
2023-02-11T01:11:59.114Z,37.20
2023-02-11T01:12:32.215Z,37.55
2023-02-11T01:13:06.676Z,37.17
2023-02-11T01:13:39.018Z,36.95
2023-02-11T01:14:11.300Z,36.38
2023-02-11T01:14:43.835Z,37.15
2023-02-11T01:15:17.484Z,37.88
2023-02-11T01:15:50.194Z,37.75
2023-02-11T01:16:23.322Z,35.72
2023-02-11T01:16:57.841Z,36.75
2023-02-11T01:17:30.216Z,36.40
2023-02-11T01:18:02.570Z,36.83
2023-02-11T01:18:34.918Z,38.10
2023-02-11T01:19:07.264Z,36.47
2023-02-11T01:19:39.815Z,36.28
2023-02-11T01:20:17.488Z,35.67
2023-02-11T01:20:51.487Z,34.72
2023-02-11T01:21:23.871Z,35.72
2023-02-11T01:21:56.923Z,35.25
2023-02-11T01:22:29.301Z,36.28
2023-02-11T01:23:01.582Z,35.08
2023-02-11T01:23:34.064Z,37.88
2023-02-11T01:24:06.801Z,36.08
2023-02-11T01:24:39.172Z,36.17
2023-02-11T01:25:13.179Z,34.92
2023-02-11T01:25:46.147Z,34.38
2023-02-11T01:26:18.541Z,35.53
2023-02-11T01:26:50.850Z,34.95
2023-02-11T01:27:23.245Z,36.00
2023-02-11T01:27:55.647Z,35.22
2023-02-11T01:28:29.379Z,34.13
2023-02-11T01:29:01.873Z,33.40
2023-02-11T01:29:34.218Z,33.50
2023-02-11T01:30:08.007Z,33.55
2023-02-11T01:30:40.407Z,34.63
2023-02-11T01:31:12.774Z,35.50
2023-02-11T01:31:45.184Z,34.97
2023-02-11T01:32:17.587Z,34.88
2023-02-11T01:32:50.173Z,32.75
2023-02-11T01:33:22.952Z,33.70
2023-02-11T01:33:55.294Z,33.05
2023-02-11T01:34:27.893Z,34.00
2023-02-11T01:35:00.277Z,33.50
2023-02-11T01:35:32.831Z,34.40
2023-02-11T01:36:06.410Z,31.95
2023-02-11T01:36:38.984Z,33.90
2023-02-11T01:37:11.355Z,34.70
2023-02-11T01:37:44.015Z,35.47
2023-02-11T01:38:17.777Z,34.35
2023-02-11T01:38:51.157Z,34.20
2023-02-11T01:39:26.487Z,33.53
2023-02-11T01:39:59.231Z,34.08
2023-02-11T01:40:31.689Z,33.80
2023-02-11T01:41:08.502Z,33.72
2023-02-11T01:41:43.281Z,33.63
2023-02-11T01:42:19.719Z,32.08
2023-02-11T01:42:52.389Z,32.00
2023-02-11T01:43:26.385Z,32.50
2023-02-11T01:43:58.965Z,33.30
2023-02-11T01:44:36.357Z,31.60
2023-02-11T01:45:27.022Z,33.58
2023-02-11T01:45:59.455Z,32.22
2023-02-11T01:46:36.387Z,31.52
2023-02-11T01:47:08.777Z,32.63
2023-02-11T01:47:41.133Z,33.28
2023-02-11T01:48:14.915Z,33.47
2023-02-11T01:48:57.773Z,32.95
2023-02-11T01:49:36.554Z,32.35
2023-02-11T01:50:08.935Z,31.95
2023-02-11T01:50:43.027Z,32.92
2023-02-11T01:51:22.850Z,32.75
2023-02-11T01:51:58.667Z,32.03
2023-02-11T01:52:33.856Z,33.05
2023-02-11T01:53:29.541Z,32.97
2023-02-11T01:54:21.277Z,30.55
2023-02-11T01:55:13.542Z,32.10
2023-02-11T01:56:04.589Z,30.08
2023-02-11T01:56:57.090Z,28.27
2023-02-11T01:57:31.280Z,26.90
2023-02-11T01:58:05.232Z,31.75
2023-02-11T01:58:41.427Z,31.50
2023-02-11T01:59:16.726Z,31.98
2023-02-11T01:59:49.034Z,31.83
2023-02-11T02:00:38.450Z,31.73
2023-02-11T02:01:13.443Z,31.77
2023-02-11T02:01:49.257Z,30.80
2023-02-11T02:02:23.707Z,31.23
2023-02-11T02:03:02.923Z,31.38
2023-02-11T02:03:37.600Z,30.88
2023-02-11T02:04:11.941Z,30.95
2023-02-11T02:04:53.139Z,32.90
2023-02-11T02:05:33.745Z,31.77
2023-02-11T02:06:38.762Z,30.98
2023-02-11T02:07:18.014Z,31.00
2023-02-11T02:08:03.756Z,31.58
2023-02-11T02:08:39.364Z,31.27
2023-02-11T02:09:17.770Z,32.13
2023-02-11T02:09:54.018Z,31.98
2023-02-11T02:10:27.420Z,31.25
2023-02-11T02:11:01.051Z,32.63
2023-02-11T02:11:33.491Z,32.17
2023-02-11T02:12:06.420Z,33.67
2023-02-11T02:12:38.825Z,32.90
2023-02-11T02:13:11.213Z,33.47
2023-02-11T02:13:43.539Z,31.75
2023-02-11T02:14:15.861Z,32.38
2023-02-11T02:14:48.259Z,35.92
2023-02-11T02:15:29.064Z,34.35
2023-02-11T02:16:02.854Z,30.80
2023-02-11T02:16:38.022Z,32.13
2023-02-11T02:17:13.826Z,33.08
2023-02-11T02:17:52.984Z,32.65
2023-02-11T02:18:31.175Z,32.10
2023-02-11T02:19:12.905Z,33.53
2023-02-11T02:20:14.882Z,34.17
2023-02-11T02:20:51.093Z,31.85
2023-02-11T02:21:47.035Z,32.10
2023-02-11T02:22:25.643Z,31.35
2023-02-11T02:23:16.798Z,31.50
2023-02-11T02:23:51.810Z,30.30
2023-02-11T02:24:24.111Z,30.20
2023-02-11T02:25:01.227Z,32.80
2023-02-11T02:25:33.587Z,32.15
2023-02-11T02:26:24.101Z,30.75
2023-02-11T02:27:02.404Z,33.92
2023-02-11T02:27:46.922Z,31.02
2023-02-11T02:28:25.805Z,30.52
2023-02-11T02:29:14.690Z,32.33
2023-02-11T02:29:55.275Z,31.05
2023-02-11T02:30:46.139Z,30.23
2023-02-11T02:31:29.812Z,31.15
2023-02-11T02:32:10.955Z,31.13
2023-02-11T02:33:07.909Z,30.08
2023-02-11T02:33:45.620Z,27.58
2023-02-11T02:34:38.382Z,29.80
2023-02-11T02:35:15.960Z,30.17
2023-02-11T02:35:52.537Z,28.95
2023-02-11T02:36:32.285Z,29.30
2023-02-11T02:37:17.290Z,28.83
2023-02-11T02:37:53.088Z,28.02
2023-02-11T02:38:25.392Z,31.55
2023-02-11T02:38:59.295Z,29.98
2023-02-11T02:39:35.958Z,31.25
2023-02-11T02:40:11.727Z,31.13
2023-02-11T02:40:48.863Z,30.48
2023-02-11T02:41:25.486Z,31.00
2023-02-11T02:41:58.264Z,29.77
2023-02-11T02:42:31.252Z,31.42
2023-02-11T02:43:03.771Z,30.20
2023-02-11T02:43:37.630Z,31.63
2023-02-11T02:44:10.263Z,31.90
2023-02-11T02:44:48.443Z,30.52
2023-02-11T02:45:20.789Z,30.67
2023-02-11T02:45:54.166Z,32.35
2023-02-11T02:46:28.419Z,31.55
2023-02-11T02:47:00.978Z,31.35
2023-02-11T02:47:33.310Z,31.52
2023-02-11T02:48:05.660Z,30.75
2023-02-11T02:48:38.172Z,31.10
2023-02-11T02:49:14.181Z,30.77
2023-02-11T02:49:46.512Z,31.98
2023-02-11T02:50:21.851Z,32.50
2023-02-11T02:51:02.133Z,30.88
2023-02-11T02:51:43.600Z,31.38
2023-02-11T02:52:27.391Z,30.33
2023-02-11T02:53:02.620Z,28.35
2023-02-11T02:53:55.334Z,31.52
2023-02-11T02:54:47.840Z,29.77
2023-02-11T02:55:29.256Z,27.83
2023-02-11T02:56:01.538Z,31.15
2023-02-11T02:56:33.941Z,29.25
2023-02-11T02:57:38.712Z,30.85
2023-02-11T02:58:19.980Z,29.10
2023-02-11T02:59:02.643Z,28.13
2023-02-11T02:59:53.713Z,28.10
2023-02-11T03:00:29.927Z,28.60
2023-02-11T03:01:22.161Z,29.00
2023-02-11T03:02:00.684Z,29.92
2023-02-11T03:02:50.993Z,28.33
2023-02-11T03:03:41.755Z,28.88
2023-02-11T03:04:22.985Z,27.80
2023-02-11T03:04:55.424Z,27.05
2023-02-11T03:05:33.799Z,28.58
2023-02-11T03:06:15.330Z,30.08
2023-02-11T03:06:54.952Z,28.98
2023-02-11T03:07:40.341Z,29.50
2023-02-11T03:08:16.854Z,30.00
2023-02-11T03:09:06.123Z,30.92
2023-02-11T03:09:42.091Z,30.00
2023-02-11T03:10:26.174Z,29.08
2023-02-11T03:10:59.398Z,28.73
2023-02-11T03:11:32.092Z,30.80
2023-02-11T03:12:04.706Z,30.30
2023-02-11T03:12:38.259Z,32.00
2023-02-11T03:13:11.729Z,31.25
2023-02-11T03:13:44.587Z,31.35
2023-02-11T03:14:18.464Z,33.35
2023-02-11T03:14:52.142Z,33.92
2023-02-11T03:15:25.992Z,32.83
2023-02-11T03:15:59.809Z,31.95
2023-02-11T03:16:38.243Z,34.58
2023-02-11T03:17:10.755Z,32.40
2023-02-11T03:17:44.501Z,33.20
2023-02-11T03:18:18.872Z,32.92
2023-02-11T03:18:54.075Z,33.30
2023-02-11T03:19:30.871Z,32.72
2023-02-11T03:20:04.888Z,33.85
2023-02-11T03:20:39.473Z,32.80
2023-02-11T03:21:12.436Z,33.05
2023-02-11T03:21:45.651Z,32.60
2023-02-11T03:22:20.956Z,33.00
2023-02-11T03:22:56.154Z,33.28
2023-02-11T03:23:35.655Z,30.92
2023-02-11T03:24:10.951Z,31.17
2023-02-11T03:24:43.434Z,31.25
2023-02-11T03:25:16.101Z,34.53
2023-02-11T03:25:55.915Z,33.83
2023-02-11T03:26:38.116Z,33.92
2023-02-11T03:27:20.630Z,33.53
2023-02-11T03:27:55.920Z,32.88
2023-02-11T03:28:28.290Z,32.70
2023-02-11T03:29:04.070Z,34.22
2023-02-11T03:29:39.746Z,32.78
2023-02-11T03:30:16.781Z,34.40
2023-02-11T03:30:52.628Z,34.05
2023-02-11T03:31:31.699Z,33.05
2023-02-11T03:32:26.752Z,31.90
2023-02-11T03:33:05.793Z,32.10
2023-02-11T03:33:59.579Z,33.13
2023-02-11T03:34:35.996Z,29.42
2023-02-11T03:35:12.096Z,32.65
2023-02-11T03:35:53.628Z,31.92
2023-02-11T03:36:33.485Z,32.65
2023-02-11T03:37:09.061Z,32.97
2023-02-11T03:37:50.888Z,32.03
2023-02-11T03:38:26.237Z,30.13
2023-02-11T03:39:00.409Z,31.42
2023-02-11T03:39:37.430Z,32.67
2023-02-11T03:40:15.274Z,32.53
2023-02-11T03:40:47.830Z,33.35
2023-02-11T03:41:21.882Z,33.53
2023-02-11T03:41:55.941Z,33.00
2023-02-11T03:42:33.476Z,32.10
2023-02-11T03:43:08.584Z,32.58
2023-02-11T03:43:42.845Z,34.00
2023-02-11T03:44:16.217Z,32.20
2023-02-11T03:44:56.616Z,32.22
2023-02-11T03:45:29.440Z,32.97
2023-02-11T03:46:02.693Z,32.63
2023-02-11T03:46:38.239Z,33.35
2023-02-11T03:47:14.377Z,33.88
2023-02-11T03:47:48.955Z,32.92
2023-02-11T03:48:26.359Z,31.40
2023-02-11T03:49:01.282Z,30.83
2023-02-11T03:49:33.872Z,32.63
2023-02-11T03:50:07.338Z,32.70
2023-02-11T03:50:40.501Z,32.53
2023-02-11T03:51:14.474Z,32.85
2023-02-11T03:51:48.219Z,34.80
2023-02-11T03:52:21.781Z,34.40
2023-02-11T03:52:55.274Z,32.63
2023-02-11T03:53:27.672Z,32.20
2023-02-11T03:54:02.153Z,32.97
2023-02-11T03:54:35.468Z,31.60
2023-02-11T03:55:10.003Z,31.58
2023-02-11T03:55:43.716Z,32.60
2023-02-11T03:56:18.007Z,31.30
2023-02-11T03:56:54.122Z,32.20
2023-02-11T03:57:26.696Z,31.08
2023-02-11T03:57:59.179Z,32.30
2023-02-11T03:58:31.575Z,31.65
2023-02-11T03:59:03.875Z,33.10
2023-02-11T03:59:56.083Z,33.58
2023-02-11T04:00:32.156Z,31.67
2023-02-11T04:01:05.425Z,32.95
2023-02-11T04:01:37.786Z,32.63
2023-02-11T04:02:10.089Z,32.92
2023-02-11T04:02:43.120Z,34.10
2023-02-11T04:03:15.924Z,32.58
2023-02-11T04:03:48.290Z,32.40
2023-02-11T04:04:20.875Z,32.20
2023-02-11T04:04:53.241Z,33.47
2023-02-11T04:05:26.049Z,34.35
2023-02-11T04:05:58.626Z,32.47
2023-02-11T04:06:30.966Z,33.20
2023-02-11T04:07:03.264Z,32.70
2023-02-11T04:07:35.732Z,34.78
2023-02-11T04:08:08.403Z,34.67
2023-02-11T04:08:40.939Z,35.33
2023-02-11T04:09:13.245Z,33.25
2023-02-11T04:09:45.604Z,34.58
2023-02-11T04:10:18.185Z,34.58
2023-02-11T04:10:50.840Z,34.35
2023-02-11T04:11:23.167Z,32.83
2023-02-11T04:11:55.462Z,35.88
2023-02-11T04:12:27.940Z,36.55
2023-02-11T04:13:00.282Z,35.20
2023-02-11T04:13:33.699Z,36.17
2023-02-11T04:14:06.097Z,35.63
2023-02-11T04:14:38.538Z,34.55
2023-02-11T04:15:10.981Z,36.55
2023-02-11T04:15:43.449Z,36.35
2023-02-11T04:16:15.736Z,35.67
2023-02-11T04:16:48.176Z,35.40
2023-02-11T04:17:20.711Z,34.78
2023-02-11T04:17:56.076Z,34.92
2023-02-11T04:18:28.571Z,33.95
2023-02-11T04:19:02.106Z,35.20
2023-02-11T04:19:34.794Z,32.55
2023-02-11T04:20:07.278Z,35.17
2023-02-11T04:20:39.577Z,34.63
2023-02-11T04:21:11.890Z,33.78
2023-02-11T04:21:44.234Z,35.45
2023-02-11T04:22:16.572Z,34.85
2023-02-11T04:22:48.928Z,33.70
2023-02-11T04:23:21.363Z,33.15
2023-02-11T04:23:53.719Z,35.22
2023-02-11T04:24:26.102Z,34.78
2023-02-11T04:24:58.584Z,34.05
2023-02-11T04:25:30.943Z,34.20
2023-02-11T04:26:03.702Z,33.88
2023-02-11T04:26:36.104Z,33.90
2023-02-11T04:27:08.409Z,32.75
2023-02-11T04:27:40.839Z,33.65
2023-02-11T04:28:13.611Z,35.03
2023-02-11T04:28:46.122Z,34.95
2023-02-11T04:29:19.228Z,34.72
2023-02-11T04:29:51.674Z,33.45
2023-02-11T04:30:23.985Z,33.05
2023-02-11T04:30:56.655Z,33.17
2023-02-11T04:31:29.188Z,33.60
2023-02-11T04:32:01.830Z,35.20
2023-02-11T04:32:34.298Z,33.15
2023-02-11T04:33:06.624Z,32.85
2023-02-11T04:33:39.068Z,33.88
2023-02-11T04:34:11.582Z,34.65
2023-02-11T04:34:43.915Z,34.33
2023-02-11T04:35:16.722Z,34.35
2023-02-11T04:35:49.588Z,33.20
2023-02-11T04:36:22.132Z,34.30
2023-02-11T04:36:54.505Z,36.08
2023-02-11T04:37:26.780Z,32.83
2023-02-11T04:37:59.230Z,33.88
2023-02-11T04:38:31.547Z,33.78
2023-02-11T04:39:04.516Z,33.58
2023-02-11T04:39:36.850Z,33.50
2023-02-11T04:40:09.476Z,33.10
2023-02-11T04:40:42.179Z,34.95
2023-02-11T04:41:14.656Z,34.58
2023-02-11T04:41:47.359Z,35.20
2023-02-11T04:42:19.622Z,33.45
2023-02-11T04:42:51.941Z,33.88
2023-02-11T04:43:24.357Z,32.05
2023-02-11T04:43:56.711Z,34.70
2023-02-11T04:44:29.218Z,32.22
2023-02-11T04:45:01.993Z,34.13
2023-02-11T04:45:34.378Z,34.72
2023-02-11T04:46:06.783Z,32.97
2023-02-11T04:46:39.483Z,31.52
2023-02-11T04:47:13.677Z,34.08
2023-02-11T04:47:46.399Z,33.38
2023-02-11T04:48:19.047Z,33.40
2023-02-11T04:48:51.437Z,33.65
2023-02-11T04:49:23.725Z,34.20
2023-02-11T04:49:56.115Z,32.20
2023-02-11T04:50:28.428Z,33.78
2023-02-11T04:51:01.602Z,34.28
2023-02-11T04:51:33.926Z,34.35
2023-02-11T04:52:06.354Z,35.03
2023-02-11T04:52:38.799Z,35.75
2023-02-11T04:53:11.314Z,35.72
2023-02-11T04:53:43.745Z,36.65
2023-02-11T04:54:16.448Z,37.28
2023-02-11T04:54:48.784Z,37.60
2023-02-11T04:55:21.301Z,38.13
2023-02-11T04:55:53.962Z,36.00
2023-02-11T04:56:26.237Z,36.25
2023-02-11T04:56:58.821Z,36.00
2023-02-11T04:57:31.227Z,35.45
2023-02-11T04:58:03.560Z,38.70
2023-02-11T04:58:36.025Z,40.47
2023-02-11T04:59:08.606Z,37.92
2023-02-11T04:59:41.432Z,38.92
2023-02-11T05:00:14.596Z,39.17
2023-02-11T05:00:47.312Z,41.78
2023-02-11T05:01:19.816Z,40.42
2023-02-11T05:01:52.317Z,39.28
2023-02-11T05:02:25.120Z,37.53
2023-02-11T05:02:57.482Z,38.15
2023-02-11T05:03:30.274Z,39.25
2023-02-11T05:04:03.135Z,40.38
2023-02-11T05:04:35.441Z,38.83
2023-02-11T05:05:07.908Z,38.42
2023-02-11T05:05:40.914Z,36.65
2023-02-11T05:06:13.641Z,37.08
2023-02-11T05:06:45.967Z,37.72
2023-02-11T05:07:18.308Z,38.80
2023-02-11T05:07:50.775Z,39.15
2023-02-11T05:08:23.437Z,39.78
2023-02-11T05:08:55.727Z,39.70
2023-02-11T05:09:28.444Z,39.08
2023-02-11T05:10:00.756Z,41.50
2023-02-11T05:10:33.339Z,42.28
2023-02-11T05:11:06.334Z,41.13
2023-02-11T05:11:39.628Z,40.25
2023-02-11T05:12:11.932Z,37.90
2023-02-11T05:12:44.191Z,36.92
2023-02-11T05:13:16.585Z,36.08
2023-02-11T05:13:49.507Z,35.90
2023-02-11T05:14:21.951Z,36.58
2023-02-11T05:14:54.298Z,37.40
2023-02-11T05:15:27.183Z,34.97
2023-02-11T05:15:59.516Z,35.50
2023-02-11T05:16:32.067Z,34.63
2023-02-11T05:17:04.398Z,35.50
2023-02-11T05:17:36.683Z,34.22
2023-02-11T05:18:09.038Z,34.17
2023-02-11T05:18:42.180Z,34.85
2023-02-11T05:19:14.873Z,33.25
2023-02-11T05:19:47.172Z,33.67
2023-02-11T05:20:19.768Z,34.63
2023-02-11T05:20:52.206Z,33.33
2023-02-11T05:21:25.000Z,32.03
2023-02-11T05:22:02.999Z,33.78
2023-02-11T05:22:35.823Z,32.38
2023-02-11T05:23:08.525Z,32.42
2023-02-11T05:23:40.985Z,32.47
2023-02-11T05:24:13.288Z,32.80
2023-02-11T05:24:45.564Z,32.03
2023-02-11T05:25:17.926Z,32.60
2023-02-11T05:25:50.527Z,31.77
2023-02-11T05:26:23.390Z,32.53
2023-02-11T05:26:55.762Z,32.72
2023-02-11T05:27:28.470Z,33.13
2023-02-11T05:28:00.821Z,34.10
2023-02-11T05:28:33.859Z,34.58
2023-02-11T05:29:06.325Z,32.78
2023-02-11T05:29:38.833Z,32.90
2023-02-11T05:30:11.700Z,33.47
2023-02-11T05:30:44.034Z,32.95
2023-02-11T05:31:17.182Z,34.25
2023-02-11T05:31:49.500Z,34.47
2023-02-11T05:32:21.803Z,34.40
2023-02-11T05:32:54.588Z,34.45
2023-02-11T05:33:26.969Z,34.05
2023-02-11T05:33:59.332Z,33.85
2023-02-11T05:34:31.683Z,33.58
2023-02-11T05:35:04.149Z,33.78
2023-02-11T05:35:36.466Z,32.95
2023-02-11T05:36:10.753Z,34.78
2023-02-11T05:36:43.266Z,31.60
2023-02-11T05:37:16.148Z,33.72
2023-02-11T05:37:48.636Z,33.10
2023-02-11T05:38:20.937Z,34.33
2023-02-11T05:38:53.213Z,32.42
2023-02-11T05:39:25.444Z,33.03
2023-02-11T05:39:57.787Z,34.22
2023-02-11T05:40:30.287Z,32.65
2023-02-11T05:41:02.791Z,32.70
2023-02-11T05:41:35.171Z,34.38
2023-02-11T05:42:07.551Z,34.38
2023-02-11T05:42:40.149Z,34.17
2023-02-11T05:43:12.481Z,32.88
2023-02-11T05:43:44.975Z,32.50
2023-02-11T05:44:17.506Z,33.83
2023-02-11T05:44:50.761Z,33.13
2023-02-11T05:45:23.119Z,33.33
2023-02-11T05:45:55.691Z,33.70
2023-02-11T05:46:28.089Z,34.47
2023-02-11T05:47:00.418Z,36.42
2023-02-11T05:47:32.715Z,36.53
2023-02-11T05:48:05.152Z,34.85
2023-02-11T05:48:37.536Z,36.10
2023-02-11T05:49:10.216Z,35.65
2023-02-11T05:49:42.507Z,34.72
2023-02-11T05:50:14.865Z,33.85
2023-02-11T05:50:47.189Z,33.97
2023-02-11T05:51:19.624Z,34.15
2023-02-11T05:51:51.916Z,36.72
2023-02-11T05:52:24.247Z,34.25
2023-02-11T05:52:56.703Z,35.22
2023-02-11T05:53:29.208Z,36.17
2023-02-11T05:54:01.964Z,35.92
2023-02-11T05:54:34.229Z,37.33
2023-02-11T05:55:06.648Z,39.55
2023-02-11T05:55:39.048Z,37.15
2023-02-11T05:56:11.893Z,36.45
2023-02-11T05:56:45.011Z,37.15
2023-02-11T05:57:17.908Z,35.13
2023-02-11T05:57:50.239Z,34.42
2023-02-11T05:58:22.674Z,37.38
2023-02-11T05:58:54.976Z,35.92
2023-02-11T05:59:27.329Z,37.60
2023-02-11T05:59:59.624Z,37.22
2023-02-11T06:00:31.937Z,38.75
2023-02-11T06:01:04.384Z,38.00
2023-02-11T06:01:36.685Z,38.88
2023-02-11T06:02:09.414Z,39.58
2023-02-11T06:02:41.814Z,38.25
2023-02-11T06:03:14.426Z,40.05
2023-02-11T06:03:47.135Z,37.55
2023-02-11T06:04:19.528Z,36.88
2023-02-11T06:04:52.635Z,36.45
2023-02-11T06:05:34.508Z,36.58
2023-02-11T06:06:11.818Z,34.75
2023-02-11T06:06:44.189Z,34.95
2023-02-11T06:07:17.627Z,35.72
2023-02-11T06:07:50.085Z,36.88
2023-02-11T06:08:22.560Z,36.83
2023-02-11T06:08:54.900Z,38.05
2023-02-11T06:09:27.678Z,36.25
2023-02-11T06:10:00.024Z,36.85
2023-02-11T06:10:32.815Z,35.92
2023-02-11T06:11:05.150Z,36.65
2023-02-11T06:11:38.481Z,38.20
2023-02-11T06:12:10.925Z,37.95
2023-02-11T06:12:45.338Z,39.45
2023-02-11T06:13:18.992Z,39.28
2023-02-11T06:13:51.428Z,38.78
2023-02-11T06:14:25.111Z,38.50
2023-02-11T06:14:57.592Z,37.65
2023-02-11T06:15:29.898Z,38.97
2023-02-11T06:16:03.096Z,39.50
2023-02-11T06:16:35.644Z,39.03
2023-02-11T06:17:08.100Z,41.50
2023-02-11T06:17:40.625Z,37.97
2023-02-11T06:18:12.916Z,40.40
2023-02-11T06:18:45.242Z,38.70
2023-02-11T06:19:17.582Z,37.63
2023-02-11T06:19:49.916Z,36.35
2023-02-11T06:20:22.376Z,36.08
2023-02-11T06:20:54.630Z,37.60
2023-02-11T06:21:40.014Z,37.28
2023-02-11T06:22:16.087Z,38.08
2023-02-11T06:22:48.425Z,38.35
2023-02-11T06:23:20.963Z,38.40
2023-02-11T06:23:53.478Z,38.65
2023-02-11T06:24:51.098Z,38.70
2023-02-11T06:25:18.617Z,36.30
2023-02-11T06:25:52.057Z,37.40
2023-02-11T06:26:24.935Z,39.60
2023-02-11T06:26:57.474Z,38.53
2023-02-11T06:27:30.298Z,38.03
2023-02-11T06:28:02.766Z,37.83
2023-02-11T06:28:36.356Z,38.47
2023-02-11T06:29:08.786Z,39.40
2023-02-11T06:29:41.097Z,40.42
2023-02-11T06:30:14.449Z,39.67
2023-02-11T06:30:46.795Z,37.90
2023-02-11T06:31:19.781Z,39.00
2023-02-11T06:31:52.396Z,38.75
2023-02-11T06:32:42.931Z,38.15
2023-02-11T06:33:16.160Z,35.95
2023-02-11T06:33:50.366Z,37.22
2023-02-11T06:34:22.696Z,36.45
2023-02-11T06:34:55.283Z,35.92
2023-02-11T06:35:27.654Z,38.80
2023-02-11T06:36:00.156Z,41.90
2023-02-11T06:36:32.654Z,40.28
2023-02-11T06:37:04.998Z,43.30
2023-02-11T06:37:37.424Z,40.97
2023-02-11T06:38:09.922Z,42.05
2023-02-11T06:38:42.800Z,41.97
2023-02-11T06:39:15.344Z,41.35
2023-02-11T06:39:48.069Z,40.67
2023-02-11T06:40:20.839Z,39.30
2023-02-11T06:40:53.299Z,40.15
2023-02-11T06:41:25.987Z,39.72
2023-02-11T06:41:58.325Z,37.55
2023-02-11T06:42:30.695Z,39.75
2023-02-11T06:43:03.108Z,39.85
2023-02-11T06:43:35.516Z,42.20
2023-02-11T06:44:08.274Z,40.55
2023-02-11T06:44:40.716Z,42.25
2023-02-11T06:45:13.584Z,44.00
2023-02-11T06:45:45.952Z,43.53
2023-02-11T06:46:18.466Z,41.63
2023-02-11T06:46:50.884Z,39.38
2023-02-11T06:47:23.281Z,43.35
2023-02-11T06:47:55.727Z,44.50
2023-02-11T06:48:28.133Z,43.08
2023-02-11T06:49:00.489Z,43.28
2023-02-11T06:49:33.025Z,43.00
2023-02-11T06:50:06.257Z,44.15
2023-02-11T06:50:38.599Z,41.35
2023-02-11T06:51:11.644Z,41.92
2023-02-11T06:51:43.945Z,41.50
2023-02-11T06:52:16.256Z,44.25
2023-02-11T06:52:48.714Z,44.00
2023-02-11T06:53:21.212Z,44.38
2023-02-11T06:53:53.593Z,42.67
2023-02-11T06:54:25.934Z,44.38
2023-02-11T06:54:58.282Z,42.55
2023-02-11T06:55:30.717Z,41.90
2023-02-11T06:56:04.586Z,41.42
2023-02-11T06:56:39.461Z,41.58
2023-02-11T06:57:11.818Z,42.65
2023-02-11T06:57:44.189Z,40.92
2023-02-11T06:58:16.640Z,42.92
2023-02-11T06:58:52.011Z,42.88
2023-02-11T06:59:24.344Z,43.53
2023-02-11T06:59:56.694Z,42.58
2023-02-11T07:00:29.805Z,42.35
2023-02-11T07:01:07.158Z,44.45
2023-02-11T07:01:39.428Z,41.95
2023-02-11T07:02:11.916Z,43.15
2023-02-11T07:02:44.432Z,46.10
2023-02-11T07:03:16.870Z,41.70
2023-02-11T07:03:50.026Z,45.15
2023-02-11T07:04:22.893Z,43.25
2023-02-11T07:04:55.502Z,44.63
2023-02-11T07:05:28.009Z,49.03
2023-02-11T07:06:00.493Z,43.95
2023-02-11T07:06:32.918Z,42.45
2023-02-11T07:07:05.349Z,43.28
2023-02-11T07:07:38.311Z,42.25
2023-02-11T07:08:10.753Z,42.63
2023-02-11T07:08:43.606Z,42.85
2023-02-11T07:09:16.018Z,41.28
2023-02-11T07:09:48.419Z,43.60
2023-02-11T07:10:21.154Z,41.80
2023-02-11T07:10:53.482Z,43.72
2023-02-11T07:11:27.022Z,43.78
2023-02-11T07:11:59.329Z,44.08
2023-02-11T07:12:31.860Z,40.92
2023-02-11T07:13:04.220Z,40.05
2023-02-11T07:13:36.565Z,39.13
2023-02-11T07:14:09.050Z,40.00
2023-02-11T07:14:42.867Z,41.42
2023-02-11T07:15:17.368Z,43.20
2023-02-11T07:15:50.509Z,43.42
2023-02-11T07:16:23.606Z,44.33
2023-02-11T07:16:55.971Z,40.22
2023-02-11T07:17:28.306Z,40.35
2023-02-11T07:18:00.765Z,38.80
2023-02-11T07:18:33.410Z,39.92
2023-02-11T07:19:05.831Z,39.63
2023-02-11T07:19:38.217Z,42.47
2023-02-11T07:20:12.538Z,39.28
2023-02-11T07:20:44.908Z,41.33
2023-02-11T07:21:19.082Z,43.88
2023-02-11T07:21:51.419Z,41.08
2023-02-11T07:22:23.728Z,42.85